Flight Track Log - Related Links

Times and Time Zones

All times are in EDT time to prevent confusion due to time zone crossing. See the N516QS flight status page for this flight to view local times or setup timezone preferences in your user account.

Time Position Orientation Groundspeed Altitude Reporting Facility
EDT Latitude Longitude Course Direction KTS MPH feet Rate Location/Type
Mon 06:30:46 AM 41.1000 -73.7667 304° West 198 228 3,500  Level New York TRACON
Mon 06:31:40 AM 41.1333 -73.8333 304° West 258 297 5,800 2,839 Climbing New York TRACON
Mon 06:32:19 AM 41.1619 -73.8908 303° West 272 313 7,900 2,880 Climbing New York Center
Mon 06:33:20 AM 41.1950 -73.9806 296° West 272 313 10,600 2,033 Climbing New York Center
Mon 06:34:20 AM 41.2317 -74.0872 295° West 293 337 12,000 712 Climbing New York Center
Mon 06:35:18 AM 41.2492 -74.2067 281° West 328 377 12,000 559 Level New York Center
Mon 06:36:18 AM 41.2203 -74.3319 253° West 346 398 13,100 1,488 Climbing New York Center
Mon 06:37:19 AM 41.1917 -74.4547 253° West 351 404 15,000 1,934 Climbing New York Center
Mon 06:38:19 AM 41.2172 -74.5664 287° West 341 392 17,000 1,636 Climbing New York Center
Mon 06:39:20 AM 41.2839 -74.6917 305° West 354 407 18,300 1,866 Climbing New York Center
Mon 06:40:18 AM 41.3408 -74.8000 305° West 383 441 20,700 2,521 Climbing New York Center
Mon 06:41:19 AM 41.4072 -74.9228 306° West 403 464 23,300 2,410 Climbing New York Center
Mon 06:42:20 AM 41.4711 -75.0625 301° West 426 490 25,600 2,168 Climbing New York Center
Mon 06:43:18 AM 41.5278 -75.2156 296° West 444 511 27,600 2,067 Climbing New York Center
Mon 06:44:19 AM 41.5864 -75.3747 296° West 466 536 29,700 1,869 Climbing New York Center
Mon 06:45:20 AM 41.6467 -75.5372 296° West 479 551 31,400 2,168 Climbing New York Center
Mon 06:46:18 AM 41.7086 -75.7000 297° West 485 558 34,000 2,441 Climbing New York Center
Mon 06:47:18 AM 41.7556 -75.8703 290° West 485 558 36,200 2,132 Climbing New York Center
Mon 06:48:19 AM 41.7978 -76.0461 288° West 490 564 38,300 2,033 Climbing New York Center
Mon 06:49:19 AM 41.8358 -76.2189 287° West 490 564 40,300 1,884 Climbing New York Center
Mon 06:50:20 AM 41.8739 -76.3864 287° West 485 558 42,100 1,350 Climbing New York Center
Mon 06:51:19 AM 41.9114 -76.5567 287° West 480 552 43,000 340 Climbing New York Center
Mon 06:52:59 AM 41.9761 -76.8400 287° West 474 545 43,000  Level Cleveland Center
Mon 06:53:59 AM 42.0128 -77.0114 286° West 474 545 43,000  Level Cleveland Center
Mon 06:54:59 AM 42.0492 -77.1800 286° West 474 545 43,000  Level Cleveland Center
Mon 06:55:59 AM 42.0875 -77.3486 287° West 474 545 43,000  Level Cleveland Center
Mon 06:56:59 AM 42.1236 -77.5203 286° West 474 545 43,000  Level Cleveland Center
Mon 06:57:59 AM 42.1611 -77.6867 287° West 474 545 43,000  Level Cleveland Center
Mon 06:58:59 AM 42.1967 -77.8561 286° West 474 545 43,000  Level Cleveland Center
Mon 06:59:59 AM 42.2339 -78.0228 287° West 474 545 43,000  Level Cleveland Center
Mon 07:00:59 AM 42.2686 -78.1897 286° West 474 545 43,000  Level Cleveland Center
Mon 07:01:59 AM 42.3053 -78.3597 286° West 474 545 43,000  Level Cleveland Center
Mon 07:02:59 AM 42.3397 -78.5269 286° West 469 540 43,000  Level Cleveland Center
Mon 07:03:59 AM 42.3739 -78.6944 285° West 469 540 43,000  Level Cleveland Center
Mon 07:04:59 AM 42.4100 -78.8650 286° West 469 540 43,000  Level Cleveland Center
Mon 07:05:59 AM 42.4414 -79.0272 285° West 463 533 43,000  Level Cleveland Center
Mon 07:06:59 AM 42.4769 -79.2008 286° West 470 541 43,000  Level Cleveland Center
Mon 07:07:59 AM 42.4956 -79.3753 278° West 470 541 43,000  Level Cleveland Center
Mon 07:08:59 AM 42.5056 -79.5494 275° West 465 535 43,000  Level Cleveland Center
Mon 07:09:59 AM 42.5153 -79.7269 274° West 465 535 43,000  Level Cleveland Center
Mon 07:10:59 AM 42.5208 -79.9014 273° West 465 535 43,000  Level Cleveland Center
Mon 07:11:59 AM 42.5278 -80.0733 273° West 460 529 43,000  Level Cleveland Center
Mon 07:12:59 AM 42.5389 -80.2675 275° West 460 529 43,000  Level Cleveland Center
Mon 07:13:59 AM 42.5436 -80.4394 272° West 460 529 43,000  Level Cleveland Center
Mon 07:14:59 AM 42.5519 -80.6169 274° West 460 529 43,000  Level Cleveland Center
Mon 07:15:59 AM 42.5581 -80.7917 273° West 466 536 43,000  Level Cleveland Center
Mon 07:16:59 AM 42.5639 -80.9639 273° West 461 531 43,000  Level Cleveland Center
Mon 07:17:59 AM 42.5694 -81.1386 273° West 461 531 43,000  Level Cleveland Center
Mon 07:18:59 AM 42.5747 -81.3106 272° West 461 531 43,000  Level Cleveland Center
Mon 07:19:59 AM 42.5422 -81.4792 255° West 461 531 43,000  Level Cleveland Center
Mon 07:20:59 AM 42.5406 -81.6511 269° West 461 531 43,000  Level Cleveland Center
Mon 07:21:59 AM 42.5394 -81.7892 269° West 461 531 43,000  Level Cleveland Center
Mon 07:22:59 AM 42.5389 -81.9978 270° West 461 531 43,000  Level Cleveland Center
Mon 07:23:59 AM 42.5389 -82.1725 270° West 461 531 43,000  Level Cleveland Center
Mon 07:24:59 AM 42.5383 -82.3472 270° West 461 531 43,000  Level Cleveland Center
Mon 07:25:59 AM 42.5378 -82.5192 270° West 461 531 43,000  Level Cleveland Center
Mon 07:26:59 AM 42.5386 -82.6967 270° West 461 531 43,000  Level Cleveland Center
Mon 07:27:59 AM 42.5356 -82.8683 269° West 461 531 43,000  Level Cleveland Center
Mon 07:28:59 AM 42.5361 -83.0431 270° West 461 531 43,000  Level Cleveland Center
Mon 07:29:59 AM 42.5342 -83.2150 269° West 461 531 43,000  Level Cleveland Center
Mon 07:30:59 AM 42.5344 -83.3897 270° West 461 531 43,000  Level Cleveland Center
Mon 07:31:59 AM 42.5342 -83.5672 270° West 461 531 43,000  Level Cleveland Center
Mon 07:32:59 AM 42.5272 -83.7417 267° West 461 531 43,000  Level Cleveland Center
Mon 07:33:59 AM 42.5244 -83.9164 269° West 461 531 43,000 -200 Level Cleveland Center
Mon 07:34:59 AM 42.5194 -84.0878 268° West 461 531 42,600 -1,200 Descending Cleveland Center
Mon 07:35:59 AM 42.5164 -84.2483 269° West 461 531 40,600 -2,000 Descending Cleveland Center
Mon 07:36:59 AM 42.5128 -84.4228 268° West 461 531 38,600 -2,000 Descending Cleveland Center
Mon 07:37:38 AM 42.5100 -84.5444 268° West 467 537 37,300 -1,960 Descending Chicago Center
Mon 07:38:40 AM 42.5067 -84.7203 269° West 468 539 35,300 -1,610 Descending Chicago Center
Mon 07:39:41 AM 42.5028 -84.8964 268° West 468 539 34,000 -634 Descending Chicago Center
Mon 07:40:43 AM 42.4978 -85.0769 268° West 474 545 34,000 -195 Level Chicago Center
Mon 07:41:44 AM 42.4925 -85.2558 268° West 475 547 33,600 -439 Descending Chicago Center
Mon 07:42:46 AM 42.4881 -85.4367 268° West 479 551 33,100 -532 Descending Chicago Center
Mon 07:43:48 AM 42.4817 -85.6169 267° West 480 552 32,500 -2,129 Descending Chicago Center
Mon 07:44:50 AM 42.4744 -85.8294 267° West 472 543 28,700 -3,366 Descending Chicago Center
Mon 07:45:51 AM 42.4689 -85.9997 268° West 454 522 25,600 -2,293 Descending Chicago Center
Mon 07:46:53 AM 42.4792 -86.1600 275° West 429 494 24,000 -774 Descending Chicago Center
Mon 07:47:55 AM 42.5236 -86.3133 292° West 433 498 24,000 -194 Level Chicago Center
Mon 07:48:57 AM 42.5656 -86.4667 290° West 431 496 23,600 -1,122 Descending Chicago Center
Mon 07:49:58 AM 42.6069 -86.6175 290° West 424 488 21,700 -2,146 Descending Chicago Center
Mon 07:51:00 AM 42.6464 -86.7617 290° West 403 464 19,200 -2,032 Descending Chicago Center
Mon 07:52:02 AM 42.6856 -86.9022 291° West 398 458 17,500 -2,226 Descending Chicago Center
Mon 07:53:04 AM 42.7222 -87.0372 290° West 382 440 14,600 -2,419 Descending Chicago Center
Mon 07:54:06 AM 42.7639 -87.1928 290° West 366 421 12,500 -1,887 Descending Chicago Center
Mon 07:55:08 AM 42.7706 -87.3156 274° West 325 374 10,700 -1,902 Descending Chicago Center
Mon 07:56:09 AM 42.7597 -87.4289 263° West 288 331 8,600 -2,000 Descending Chicago Center
Mon 07:57:11 AM 42.7294 -87.5303 248° West 289 333 6,600 -1,935 Descending Chicago Center
Mon 07:58:13 AM 42.6903 -87.6208 240° Southwest 292 336 4,600 -1,258 Descending Chicago Center
Mon 07:59:15 AM 42.6417 -87.6922 227° Southwest 263 303 4,000 -387 Descending Chicago Center
Mon 08:00:17 AM 42.5939 -87.7147 199° South 196 226 3,800 -581 Descending Chicago Center
Mon 08:01:19 AM 42.5475 -87.7461 206° Southwest 193 222 2,800 -629 Descending Chicago Center
Mon 08:02:21 AM 42.4969 -87.7678 198° South 170 196 2,500 -435 Descending Chicago Center
Mon 08:03:23 AM 42.4639 -87.7992 215° Southwest 146 168 1,900 -435 Descending Chicago Center
Mon 08:04:25 AM 42.4417 -87.8425 235° Southwest 142 163 1,600 -290 Descending Chicago Center
Mon 08:06:00 AM 42.4167 -87.8667 206° Southwest  Level FlightAware Approximate

Login

Don't have an account? Register now (free) for customized features, flight alerts, and more!